Time;durP1;ratioP1;P1;durP2;ratioP2;P2;SDS_P1;SDS_P2;PMS_P1;PMS_P2;Temp;Humidity;BMP_temperature;BMP_pressure;BME280_temperature;BME280_humidity;BME280_pressure;Samples;Min_cycle;Max_cycle;Signal;HPM_P1;HPM_P2
2023/12/14 00:00:57;;;;;;;3.10;0.60;;;7.80;30.70;;;;;;5024852;28;20493;-66
2023/12/14 00:03:25;;;;;;;3.73;0.70;;;7.80;30.10;;;;;;5025189;28;20485;-65
2023/12/14 00:05:52;;;;;;;3.00;0.60;;;7.80;30.00;;;;;;5028711;28;20483;-65
2023/12/14 00:08:19;;;;;;;2.90;0.57;;;7.80;29.90;;;;;;5027673;28;21003;-66
2023/12/14 00:10:45;;;;;;;2.77;0.47;;;7.80;29.80;;;;;;5026625;28;20501;-65
2023/12/14 00:13:12;;;;;;;3.30;0.63;;;7.80;29.80;;;;;;5026582;28;20493;-64
2023/12/14 00:15:39;;;;;;;3.00;0.50;;;7.80;29.80;;;;;;5027818;28;20455;-64
2023/12/14 00:18:06;;;;;;;2.90;0.50;;;7.80;29.50;;;;;;5026459;28;20868;-64
2023/12/14 00:20:34;;;;;;;3.67;0.60;;;7.80;29.30;;;;;;5025905;28;20959;-65
2023/12/14 00:23:01;;;;;;;4.40;0.40;;;7.80;29.20;;;;;;5026943;28;20487;-65
2023/12/14 00:25:28;;;;;;;2.90;0.40;;;7.70;29.00;;;;;;5022705;28;20904;-65
2023/12/14 00:27:55;;;;;;;3.40;0.40;;;7.70;28.90;;;;;;5028684;28;20462;-64
2023/12/14 00:30:22;;;;;;;2.93;0.47;;;7.70;29.60;;;;;;5023574;28;20467;-65
2023/12/14 00:32:48;;;;;;;2.80;0.50;;;7.70;29.10;;;;;;5027536;28;20493;-64
2023/12/14 00:35:15;;;;;;;2.90;0.50;;;7.70;29.00;;;;;;5027728;28;20458;-64
2023/12/14 00:37:43;;;;;;;2.97;0.50;;;7.60;29.10;;;;;;5024101;28;20466;-64
2023/12/14 00:40:11;;;;;;;2.90;0.60;;;7.60;29.10;;;;;;5051818;23;20512;-62
2023/12/14 00:42:38;;;;;;;3.10;0.60;;;7.50;29.10;;;;;;5047508;28;20474;-62
2023/12/14 00:45:06;;;;;;;2.80;0.50;;;7.50;29.20;;;;;;5045926;28;20856;-62
2023/12/14 00:47:32;;;;;;;3.00;0.60;;;7.50;29.30;;;;;;5042515;28;20496;-62
2023/12/14 00:49:59;;;;;;;2.93;0.40;;;7.50;29.40;;;;;;5047299;28;20488;-61
2023/12/14 00:52:26;;;;;;;3.00;0.70;;;7.50;29.50;;;;;;5045477;28;20485;-62
2023/12/14 00:54:54;;;;;;;2.93;0.60;;;7.40;29.70;;;;;;5045591;28;20515;-62
2023/12/14 00:57:21;;;;;;;2.97;0.50;;;7.40;29.70;;;;;;5039942;28;20465;-62
2023/12/14 00:59:48;;;;;;;2.93;0.60;;;7.40;29.80;;;;;;5045294;28;20548;-62
2023/12/14 01:02:15;;;;;;;3.00;0.67;;;7.40;29.80;;;;;;5041028;28;20484;-62
2023/12/14 01:04:42;;;;;;;3.87;0.60;;;7.40;30.00;;;;;;5045316;28;20573;-62
2023/12/14 01:07:09;;;;;;;3.77;0.70;;;7.40;30.10;;;;;;5040527;28;20462;-62
2023/12/14 01:09:35;;;;;;;3.53;0.73;;;7.40;30.10;;;;;;5040462;28;20468;-62
2023/12/14 01:12:04;;;;;;;3.07;0.83;;;7.30;30.20;;;;;;5043302;28;20569;-62
2023/12/14 01:14:31;;;;;;;3.30;0.50;;;7.30;30.30;;;;;;5039984;28;20553;-62
2023/12/14 01:16:58;;;;;;;3.13;0.80;;;7.30;30.40;;;;;;5048559;28;20458;-62
2023/12/14 01:19:25;;;;;;;3.03;0.63;;;7.30;30.40;;;;;;5045950;28;20988;-62
2023/12/14 01:21:52;;;;;;;3.07;0.60;;;7.30;30.60;;;;;;5045359;28;20467;-62
2023/12/14 01:24:19;;;;;;;3.93;0.97;;;7.30;30.70;;;;;;5050343;28;20569;-62
2023/12/14 01:26:46;;;;;;;4.13;1.07;;;7.30;30.70;;;;;;5048721;28;20474;-62
2023/12/14 01:29:14;;;;;;;3.33;0.80;;;7.30;30.80;;;;;;5051217;28;20553;-62
2023/12/14 01:31:41;;;;;;;4.90;0.83;;;7.30;30.80;;;;;;5040943;28;20488;-62
2023/12/14 01:34:08;;;;;;;3.50;1.10;;;7.30;30.90;;;;;;5047288;28;20556;-62
2023/12/14 01:36:35;;;;;;;3.40;0.80;;;7.30;31.00;;;;;;5047375;28;20490;-62
2023/12/14 01:39:02;;;;;;;3.77;0.90;;;7.30;31.00;;;;;;5046431;28;20462;-62
2023/12/14 01:41:28;;;;;;;3.10;0.80;;;7.30;31.10;;;;;;5044872;28;20552;-63
2023/12/14 01:43:55;;;;;;;4.50;0.97;;;7.30;31.80;;;;;;5048281;28;20458;-64
2023/12/14 01:46:23;;;;;;;3.33;1.00;;;7.30;31.20;;;;;;5050225;28;20480;-64
2023/12/14 01:48:51;;;;;;;3.73;1.23;;;7.30;31.30;;;;;;5048585;28;20832;-63
2023/12/14 01:51:18;;;;;;;3.60;1.23;;;7.20;31.20;;;;;;5045452;28;20460;-64
2023/12/14 01:53:45;;;;;;;4.17;1.47;;;7.20;31.40;;;;;;5048828;28;20462;-63
2023/12/14 01:56:12;;;;;;;3.70;1.10;;;7.20;31.50;;;;;;5050207;28;20450;-64
2023/12/14 01:58:39;;;;;;;4.70;1.57;;;7.20;31.50;;;;;;5043413;28;20528;-64
2023/12/14 02:01:15;;;;;;;4.27;1.03;;;7.20;31.60;;;;;;5047802;28;20474;-63
2023/12/14 02:03:46;;;;;;;4.00;1.67;;;7.20;31.70;;;;;;5049027;28;20462;-63
2023/12/14 02:06:13;;;;;;;3.70;1.17;;;7.20;31.80;;;;;;5048475;28;20489;-64
2023/12/14 02:08:40;;;;;;;3.63;1.50;;;7.20;31.90;;;;;;5044702;28;20545;-64
2023/12/14 02:11:07;;;;;;;3.93;1.67;;;7.30;32.10;;;;;;5047165;28;20834;-64
2023/12/14 02:13:34;;;;;;;3.50;1.27;;;7.30;32.10;;;;;;5046590;28;20837;-64
2023/12/14 02:16:01;;;;;;;4.00;1.60;;;7.30;32.10;;;;;;5047953;28;20454;-64
2023/12/14 02:18:28;;;;;;;3.93;1.50;;;7.30;32.30;;;;;;5047447;28;20913;-63
2023/12/14 02:20:56;;;;;;;3.40;1.30;;;7.30;32.90;;;;;;5048051;28;20458;-65
2023/12/14 02:23:24;;;;;;;3.80;1.30;;;7.30;32.20;;;;;;5050503;28;20848;-64
2023/12/14 02:25:51;;;;;;;4.40;1.57;;;7.30;32.20;;;;;;5050489;28;20536;-64
2023/12/14 02:28:18;;;;;;;3.77;1.30;;;7.30;32.20;;;;;;5049295;28;20462;-64
2023/12/14 02:30:45;;;;;;;3.70;1.30;;;7.30;32.20;;;;;;5047078;28;20926;-64
2023/12/14 02:33:12;;;;;;;4.57;1.87;;;7.30;32.30;;;;;;5050209;28;20957;-64
2023/12/14 02:35:39;;;;;;;4.17;1.67;;;7.30;32.30;;;;;;5049798;28;20482;-64
2023/12/14 02:38:05;;;;;;;3.60;1.30;;;7.30;32.40;;;;;;5047816;28;20474;-64
2023/12/14 02:40:34;;;;;;;3.70;1.60;;;7.30;32.40;;;;;;5045068;28;20458;-64
2023/12/14 02:43:00;;;;;;;3.60;1.67;;;7.30;32.50;;;;;;5047460;28;20937;-64
2023/12/14 02:45:27;;;;;;;3.43;1.20;;;7.30;32.50;;;;;;5049089;28;20482;-64
2023/12/14 02:47:54;;;;;;;3.40;1.17;;;7.30;32.50;;;;;;5045310;28;20483;-64
2023/12/14 02:50:21;;;;;;;4.23;1.00;;;7.30;32.50;;;;;;5047702;28;20462;-64
2023/12/14 02:52:48;;;;;;;4.60;1.20;;;7.30;32.50;;;;;;5038808;28;20492;-64
2023/12/14 02:55:15;;;;;;;3.40;1.10;;;7.40;32.50;;;;;;5047292;28;20462;-64
2023/12/14 02:57:44;;;;;;;3.80;1.20;;;7.40;32.60;;;;;;5047473;28;21798;-64
2023/12/14 03:00:12;;;;;;;3.50;1.23;;;7.40;32.50;;;;;;5050467;28;20468;-63
2023/12/14 03:02:39;;;;;;;3.77;1.33;;;7.40;32.50;;;;;;5047993;28;20564;-64
2023/12/14 03:05:07;;;;;;;3.97;0.90;;;7.40;32.50;;;;;;5043878;28;20547;-64
2023/12/14 03:07:34;;;;;;;4.03;0.97;;;7.40;32.50;;;;;;5047364;28;20461;-64
2023/12/14 03:10:00;;;;;;;6.40;1.80;;;7.30;32.50;;;;;;5049730;28;20472;-64
2023/12/14 03:12:27;;;;;;;3.63;1.17;;;7.30;32.60;;;;;;5045193;28;20565;-64
2023/12/14 03:14:55;;;;;;;3.60;1.27;;;7.30;32.50;;;;;;5047746;28;20468;-64
2023/12/14 03:17:22;;;;;;;3.70;1.20;;;7.30;32.60;;;;;;5047645;28;20454;-64
2023/12/14 03:19:49;;;;;;;3.60;1.13;;;7.20;32.50;;;;;;5047370;28;20469;-64
2023/12/14 03:22:16;;;;;;;4.20;1.10;;;7.20;32.60;;;;;;5047490;28;20482;-63
2023/12/14 03:24:43;;;;;;;3.60;1.30;;;7.20;32.60;;;;;;5046762;28;20458;-64
2023/12/14 03:27:10;;;;;;;4.43;1.40;;;7.20;32.70;;;;;;5047118;28;20835;-64
2023/12/14 03:29:37;;;;;;;3.97;1.30;;;7.10;32.60;;;;;;5046393;28;20867;-63
2023/12/14 03:32:05;;;;;;;4.47;1.30;;;7.10;32.70;;;;;;5044358;28;20470;-64
2023/12/14 03:34:32;;;;;;;4.43;1.80;;;7.10;32.90;;;;;;5046536;28;21456;-63
2023/12/14 03:36:59;;;;;;;3.80;1.30;;;7.00;32.80;;;;;;5049842;28;20464;-63
2023/12/14 03:39:26;;;;;;;3.70;1.30;;;7.00;32.80;;;;;;5048056;28;20457;-64
2023/12/14 03:41:53;;;;;;;3.60;1.50;;;7.00;32.90;;;;;;5044121;28;20486;-64
2023/12/14 03:44:19;;;;;;;4.53;1.60;;;7.00;32.90;;;;;;5046677;28;20466;-63
2023/12/14 03:46:46;;;;;;;3.57;1.33;;;7.00;33.50;;;;;;5047147;28;20575;-64
2023/12/14 03:49:15;;;;;;;3.87;1.57;;;6.90;32.90;;;;;;5048120;28;20849;-63
2023/12/14 03:51:41;;;;;;;3.90;1.30;;;6.90;32.80;;;;;;5044970;28;20486;-63
2023/12/14 03:54:08;;;;;;;3.93;1.70;;;6.90;32.90;;;;;;5048648;28;20462;-63
2023/12/14 03:56:35;;;;;;;4.03;1.83;;;6.90;32.80;;;;;;5046347;28;20455;-63
2023/12/14 03:59:02;;;;;;;4.07;1.77;;;6.90;32.80;;;;;;5046803;28;20470;-63
2023/12/14 04:01:29;;;;;;;6.43;2.03;;;6.90;32.80;;;;;;5043199;28;20452;-64
2023/12/14 04:03:56;;;;;;;4.30;1.67;;;6.90;33.10;;;;;;5048353;28;20208;-63
2023/12/14 04:06:24;;;;;;;3.70;1.53;;;7.00;32.90;;;;;;5048059;28;20482;-64
2023/12/14 04:08:51;;;;;;;5.63;2.40;;;6.90;32.80;;;;;;5047326;28;21303;-63
2023/12/14 04:11:18;;;;;;;4.37;2.00;;;7.00;32.70;;;;;;5044735;28;20462;-64
2023/12/14 04:13:44;;;;;;;4.37;1.90;;;7.00;32.70;;;;;;5046845;28;20464;-64
2023/12/14 04:16:11;;;;;;;6.10;2.37;;;7.00;32.80;;;;;;5048435;28;20990;-64
2023/12/14 04:18:39;;;;;;;4.20;2.00;;;7.00;32.80;;;;;;5046733;28;20528;-65
2023/12/14 04:21:06;;;;;;;4.33;2.20;;;7.00;32.90;;;;;;5043882;28;20468;-64
2023/12/14 04:23:34;;;;;;;4.43;1.80;;;7.00;32.90;;;;;;5048366;28;20888;-64
2023/12/14 04:26:01;;;;;;;5.13;2.57;;;7.00;32.90;;;;;;5046988;28;20513;-63
2023/12/14 04:28:28;;;;;;;4.20;2.20;;;7.00;33.10;;;;;;5048927;28;21102;-64
2023/12/14 04:30:55;;;;;;;6.83;2.77;;;7.00;33.10;;;;;;5044851;28;20478;-64
2023/12/14 04:33:22;;;;;;;6.23;2.13;;;7.00;33.80;;;;;;5044661;28;20485;-65
2023/12/14 04:35:48;;;;;;;5.30;2.23;;;7.10;33.30;;;;;;5046688;28;20480;-65
2023/12/14 04:38:15;;;;;;;5.10;2.40;;;7.10;33.30;;;;;;5046597;28;20464;-65
2023/12/14 04:40:43;;;;;;;4.90;2.07;;;7.10;33.40;;;;;;5045833;28;21146;-64
2023/12/14 04:43:10;;;;;;;4.70;2.37;;;7.10;33.40;;;;;;5043475;28;20890;-65
2023/12/14 04:45:37;;;;;;;4.40;2.40;;;7.10;34.00;;;;;;5046783;28;20464;-64
2023/12/14 04:48:04;;;;;;;4.87;2.67;;;7.10;33.50;;;;;;5045708;28;20462;-65
2023/12/14 04:50:31;;;;;;;5.60;2.10;;;7.10;33.60;;;;;;5046589;28;20458;-64
2023/12/14 04:52:58;;;;;;;5.47;2.93;;;7.10;33.60;;;;;;5039767;28;21026;-65
2023/12/14 04:55:25;;;;;;;6.93;3.03;;;7.10;33.60;;;;;;5048190;28;20881;-64
2023/12/14 04:57:53;;;;;;;7.10;3.10;;;7.10;33.80;;;;;;5042653;28;20462;-64
2023/12/14 05:00:20;;;;;;;5.77;2.80;;;7.10;33.70;;;;;;5044327;28;20457;-64
2023/12/14 05:02:49;;;;;;;5.30;2.97;;;7.10;33.80;;;;;;5044464;28;20561;-64
2023/12/14 05:05:16;;;;;;;8.33;3.57;;;7.20;33.90;;;;;;5043876;28;20454;-64
2023/12/14 05:07:43;;;;;;;5.93;3.40;;;7.20;34.00;;;;;;5051017;28;20502;-64
2023/12/14 05:10:10;;;;;;;6.77;3.43;;;7.20;33.90;;;;;;5045294;28;20516;-64
2023/12/14 05:12:37;;;;;;;6.17;3.90;;;7.20;34.10;;;;;;5044824;28;20497;-64
2023/12/14 05:15:07;;;;;;;7.70;3.50;;;7.20;34.20;;;;;;5045908;28;20466;-63
2023/12/14 05:17:36;;;;;;;8.53;3.80;;;7.20;34.20;;;;;;5046477;28;20454;-63
2023/12/14 05:20:04;;;;;;;6.37;3.90;;;7.20;34.20;;;;;;5045884;28;20458;-63
2023/12/14 05:22:31;;;;;;;6.47;4.20;;;7.20;34.30;;;;;;5045837;28;20485;-64
2023/12/14 05:24:58;;;;;;;8.37;5.37;;;7.20;34.30;;;;;;5046409;28;20470;-63
2023/12/14 05:30:09;;;;;;;9.03;4.33;;;7.20;34.50;;;;;;5046651;28;20470;-66
2023/12/14 05:32:36;;;;;;;7.73;4.47;;;7.30;34.40;;;;;;5045766;28;20486;-65
2023/12/14 05:35:03;;;;;;;12.27;5.37;;;7.30;34.40;;;;;;5054950;28;20461;-66
2023/12/14 05:37:30;;;;;;;10.53;5.70;;;7.30;34.30;;;;;;5052114;28;20929;-66
2023/12/14 05:39:57;;;;;;;9.83;6.63;;;7.30;34.40;;;;;;5053354;28;20476;-65
2023/12/14 05:42:24;;;;;;;12.03;6.63;;;7.30;34.30;;;;;;5045219;28;20482;-65
2023/12/14 05:44:51;;;;;;;10.73;7.00;;;7.40;34.40;;;;;;5053780;28;20549;-66
2023/12/14 05:47:19;;;;;;;12.43;6.80;;;7.40;34.30;;;;;;5053372;28;20572;-66
2023/12/14 05:49:46;;;;;;;11.73;6.33;;;7.40;35.10;;;;;;5051256;28;20449;-66
2023/12/14 05:52:13;;;;;;;13.97;8.00;;;7.40;34.50;;;;;;5043852;28;20859;-66
2023/12/14 05:54:40;;;;;;;11.47;7.03;;;7.40;35.10;;;;;;5040973;28;20465;-67
2023/12/14 05:57:07;;;;;;;13.00;9.20;;;7.40;34.60;;;;;;5050528;28;20458;-66
2023/12/14 05:59:34;;;;;;;12.70;7.73;;;7.30;34.70;;;;;;5046937;28;20545;-66
2023/12/14 06:02:01;;;;;;;15.20;7.90;;;7.30;34.60;;;;;;5057452;28;20836;-66
2023/12/14 06:04:30;;;;;;;12.70;7.80;;;7.40;34.70;;;;;;5053347;28;20548;-67
2023/12/14 06:06:56;;;;;;;11.83;7.40;;;7.30;34.80;;;;;;5055176;28;20490;-67
2023/12/14 06:09:29;;;;;;;14.70;9.40;;;7.40;34.90;;;;;;5055442;28;20449;-67
2023/12/14 06:11:56;;;;;;;14.30;8.77;;;7.40;34.70;;;;;;5052062;28;20539;-67
2023/12/14 06:14:23;;;;;;;14.63;8.90;;;7.40;34.80;;;;;;5050392;28;20457;-66
2023/12/14 06:16:49;;;;;;;14.17;9.50;;;7.40;34.90;;;;;;5047912;28;21005;-67
2023/12/14 06:19:16;;;;;;;18.30;9.73;;;7.40;34.90;;;;;;5050590;28;20984;-67
2023/12/14 06:21:44;;;;;;;15.70;8.93;;;7.40;35.00;;;;;;5046790;28;20484;-67
2023/12/14 06:24:11;;;;;;;13.60;9.17;;;7.40;35.10;;;;;;5051309;28;20467;-66
2023/12/14 06:26:42;;;;;;;15.07;8.90;;;7.40;35.10;;;;;;5048604;28;20492;-66
2023/12/14 06:29:09;;;;;;;15.37;9.07;;;7.40;35.20;;;;;;5061609;28;20461;-67
2023/12/14 06:31:36;;;;;;;13.60;9.07;;;7.40;35.20;;;;;;5067740;28;20473;-67
2023/12/14 06:34:04;;;;;;;14.80;9.60;;;7.40;35.20;;;;;;5067298;28;20989;-67
2023/12/14 06:36:31;;;;;;;16.57;9.70;;;7.40;35.30;;;;;;5066858;28;20483;-67
2023/12/14 06:39:00;;;;;;;17.13;9.60;;;7.40;35.20;;;;;;5068019;28;20467;-67
2023/12/14 06:41:28;;;;;;;19.07;9.90;;;7.40;35.20;;;;;;5064175;28;20491;-65
2023/12/14 06:43:55;;;;;;;18.30;11.60;;;7.40;35.20;;;;;;5070191;28;20843;-65
2023/12/14 06:46:23;;;;;;;15.80;9.90;;;7.40;35.20;;;;;;5069742;28;20453;-66
2023/12/14 06:48:50;;;;;;;13.63;8.37;;;7.40;35.20;;;;;;5062420;28;20468;-65
2023/12/14 06:51:17;;;;;;;16.23;8.70;;;7.40;35.30;;;;;;5068783;28;20465;-65
2023/12/14 06:53:45;;;;;;;12.80;8.30;;;7.40;35.10;;;;;;5070389;28;20892;-65
2023/12/14 06:56:14;;;;;;;14.03;9.10;;;7.40;35.20;;;;;;5065692;28;22410;-65
2023/12/14 06:58:42;;;;;;;13.77;8.10;;;7.40;35.90;;;;;;5068110;28;20673;-67
2023/12/14 07:01:13;;;;;;;10.30;7.00;;;7.40;35.40;;;;;;5069063;28;20472;-65
2023/12/14 07:03:41;;;;;;;13.33;7.93;;;7.40;35.20;;;;;;5070485;28;20461;-65
2023/12/14 07:06:08;;;;;;;14.43;8.07;;;7.40;35.20;;;;;;5066055;28;20489;-65
2023/12/14 07:08:35;;;;;;;12.67;7.13;;;7.40;35.10;;;;;;5064856;28;20487;-66
2023/12/14 07:11:02;;;;;;;11.77;7.63;;;7.50;35.10;;;;;;5068363;28;20465;-66
2023/12/14 07:13:30;;;;;;;13.40;6.33;;;7.40;35.60;;;;;;5070623;28;21051;-65
2023/12/14 07:15:57;;;;;;;12.77;7.57;;;7.40;35.10;;;;;;5069482;28;20453;-65
2023/12/14 07:18:24;;;;;;;11.67;6.03;;;7.40;35.20;;;;;;5070470;28;20522;-66
2023/12/14 07:20:51;;;;;;;11.60;7.00;;;7.40;35.10;;;;;;5069026;28;20485;-66
2023/12/14 07:23:19;;;;;;;11.13;5.73;;;7.50;35.10;;;;;;5066845;28;20487;-66
2023/12/14 07:25:46;;;;;;;9.80;6.20;;;7.50;35.70;;;;;;5062010;28;20543;-66
2023/12/14 07:28:13;;;;;;;12.20;7.40;;;7.50;34.90;;;;;;5067889;28;20473;-65
2023/12/14 07:30:41;;;;;;;9.90;6.43;;;7.50;35.00;;;;;;5067740;28;20847;-65
2023/12/14 07:33:08;;;;;;;11.23;6.53;;;7.50;34.90;;;;;;5068829;28;21249;-65
2023/12/14 07:35:35;;;;;;;12.27;7.40;;;7.50;34.90;;;;;;5066349;28;20458;-66
2023/12/14 07:38:02;;;;;;;12.00;7.33;;;7.60;34.90;;;;;;5070806;28;20456;-66
2023/12/14 07:40:29;;;;;;;12.77;6.60;;;7.60;34.80;;;;;;5070655;28;20453;-65
2023/12/14 07:42:56;;;;;;;10.80;6.67;;;7.60;34.80;;;;;;5069823;28;20487;-66
2023/12/14 07:45:23;;;;;;;11.33;7.47;;;7.60;34.50;;;;;;5070714;28;21114;-65
2023/12/14 07:47:51;;;;;;;10.60;6.53;;;7.60;34.60;;;;;;5063709;28;20492;-65
2023/12/14 07:50:19;;;;;;;13.70;6.80;;;7.60;34.60;;;;;;5068082;28;20495;-66
2023/12/14 07:52:46;;;;;;;11.57;6.67;;;7.60;34.60;;;;;;5070652;28;20984;-66
2023/12/14 07:55:13;;;;;;;10.77;7.00;;;7.60;34.60;;;;;;5067092;28;20840;-65
2023/12/14 07:57:40;;;;;;;13.30;6.90;;;7.70;34.70;;;;;;5064944;28;20457;-65
2023/12/14 08:00:08;;;;;;;11.70;6.90;;;7.70;34.70;;;;;;5069854;28;20460;-65
2023/12/14 08:02:35;;;;;;;11.13;7.23;;;7.60;34.70;;;;;;5063411;28;20465;-65
2023/12/14 08:05:03;;;;;;;12.43;7.30;;;7.70;34.80;;;;;;5071153;28;20543;-66
2023/12/14 08:07:31;;;;;;;12.20;7.90;;;7.70;34.80;;;;;;5070066;28;20469;-66
2023/12/14 08:10:00;;;;;;;15.27;8.07;;;7.70;35.30;;;;;;5068988;28;20448;-65
2023/12/14 08:12:27;;;;;;;13.47;7.23;;;7.70;34.80;;;;;;5066355;28;20473;-65
2023/12/14 08:14:54;;;;;;;11.60;7.57;;;7.70;34.80;;;;;;5069356;28;20449;-66
2023/12/14 08:17:21;;;;;;;11.83;7.70;;;7.70;34.70;;;;;;5069296;28;20453;-66
2023/12/14 08:19:48;;;;;;;12.20;7.70;;;7.70;34.80;;;;;;5070388;28;20457;-66
2023/12/14 08:22:16;;;;;;;15.07;7.50;;;7.80;34.80;;;;;;5069491;28;20477;-65
2023/12/14 08:24:43;;;;;;;13.10;8.70;;;7.80;34.80;;;;;;5066953;28;20453;-65
2023/12/14 08:27:10;;;;;;;14.07;7.90;;;7.80;34.80;;;;;;5067130;28;20576;-65
2023/12/14 08:29:38;;;;;;;16.07;8.30;;;7.80;34.60;;;;;;5067788;28;20543;-65
2023/12/14 08:32:06;;;;;;;13.77;8.10;;;7.80;35.20;;;;;;5068568;28;20979;-66
2023/12/14 08:34:33;;;;;;;12.60;8.10;;;7.90;34.70;;;;;;5069231;28;20453;-66
2023/12/14 08:37:01;;;;;;;16.50;7.83;;;7.90;34.80;;;;;;5067779;28;20830;-66
2023/12/14 08:39:30;;;;;;;14.90;8.00;;;7.90;34.70;;;;;;5069546;28;21159;-66
2023/12/14 08:41:56;;;;;;;16.03;9.50;;;7.90;34.80;;;;;;5066462;28;20481;-66
2023/12/14 08:44:23;;;;;;;13.10;8.57;;;7.90;35.10;;;;;;5062491;28;20497;-66
2023/12/14 08:46:51;;;;;;;11.90;7.80;;;8.00;35.00;;;;;;5068106;28;20457;-66
2023/12/14 08:49:17;;;;;;;11.67;7.20;;;8.00;35.00;;;;;;5066862;28;20572;-65
2023/12/14 08:51:45;;;;;;;13.53;8.43;;;8.00;34.30;;;;;;5065904;28;20831;-66
2023/12/14 08:54:12;;;;;;;11.80;7.50;;;8.00;34.10;;;;;;5066487;28;20551;-66
2023/12/14 08:56:40;;;;;;;9.77;6.50;;;8.00;34.20;;;;;;5067816;28;20814;-65
2023/12/14 08:59:07;;;;;;;11.47;7.17;;;8.00;34.00;;;;;;5062871;28;20445;-65
2023/12/14 09:01:34;;;;;;;10.00;6.50;;;8.00;34.10;;;;;;5064232;28;20556;-65
2023/12/14 09:04:01;;;;;;;12.30;6.90;;;8.10;34.10;;;;;;5067170;28;21876;-65
2023/12/14 09:06:28;;;;;;;11.13;6.80;;;8.10;34.20;;;;;;5067846;28;20467;-66
2023/12/14 09:08:54;;;;;;;9.30;6.33;;;8.10;34.10;;;;;;5067306;28;20480;-66
2023/12/14 09:11:21;;;;;;;11.10;6.30;;;8.20;34.00;;;;;;5067619;28;20457;-65
2023/12/14 09:13:50;;;;;;;9.40;5.90;;;8.30;34.40;;;;;;5064537;28;20472;-66
2023/12/14 09:16:17;;;;;;;9.70;6.50;;;8.30;33.80;;;;;;5066112;28;20492;-66
2023/12/14 09:18:44;;;;;;;9.20;6.47;;;8.30;33.70;;;;;;5064698;28;20471;-66
2023/12/14 09:21:11;;;;;;;11.60;5.87;;;8.40;33.40;;;;;;5067014;28;20463;-66
2023/12/14 09:23:37;;;;;;;7.80;5.37;;;8.40;33.40;;;;;;5063909;28;20454;-66
2023/12/14 09:26:04;;;;;;;7.30;5.40;;;8.40;33.50;;;;;;5066610;28;20837;-66
2023/12/14 09:28:31;;;;;;;10.80;6.10;;;8.50;33.30;;;;;;5065786;28;20483;-67
2023/12/14 09:31:00;;;;;;;8.73;4.53;;;8.60;33.40;;;;;;5066425;28;20475;-66
2023/12/14 09:33:26;;;;;;;8.00;4.70;;;8.70;33.10;;;;;;5067007;28;20523;-66
2023/12/14 09:35:53;;;;;;;9.80;5.80;;;8.70;32.70;;;;;;5069085;28;20473;-66
2023/12/14 09:38:20;;;;;;;6.37;4.40;;;8.70;32.50;;;;;;5068796;28;20900;-66
2023/12/14 09:40:47;;;;;;;11.33;5.30;;;8.80;32.40;;;;;;5071768;28;20453;-65
2023/12/14 09:43:14;;;;;;;7.93;4.70;;;8.90;32.40;;;;;;5066728;28;20508;-66
2023/12/14 09:45:44;;;;;;;7.40;4.47;;;9.00;32.30;;;;;;5070900;28;20492;-66
2023/12/14 09:48:13;;;;;;;8.50;4.10;;;9.20;32.10;;;;;;5069672;28;20840;-67
2023/12/14 09:50:40;;;;;;;7.30;4.20;;;9.30;31.00;;;;;;5070906;28;20453;-67
2023/12/14 09:53:07;;;;;;;10.47;3.80;;;9.40;30.30;;;;;;5067727;28;20974;-66
2023/12/14 09:55:34;;;;;;;5.37;2.80;;;9.50;31.00;;;;;;5069585;28;20543;-67
2023/12/14 09:58:02;;;;;;;5.63;3.23;;;9.60;30.60;;;;;;5070071;28;20451;-67
2023/12/14 10:00:35;;;;;;;6.80;3.73;;;9.60;29.50;;;;;;5070104;28;20539;-66
2023/12/14 10:03:19;;;;;;;5.30;2.73;;;9.80;29.20;;;;;;5068378;28;20491;-67
2023/12/14 10:05:46;;;;;;;5.77;2.50;;;10.00;29.60;;;;;;5069320;28;20526;-67
2023/12/14 10:08:13;;;;;;;5.80;2.63;;;10.10;28.20;;;;;;5067211;28;20535;-67
2023/12/14 10:10:40;;;;;;;5.50;2.90;;;10.20;27.60;;;;;;5071054;28;20463;-67
2023/12/14 10:13:07;;;;;;;6.50;2.50;;;10.30;27.20;;;;;;5068690;28;20522;-67
2023/12/14 10:15:41;;;;;;;8.00;2.80;;;10.20;26.70;;;;;;5074807;28;20460;-67
2023/12/14 10:18:08;;;;;;;7.13;2.43;;;10.20;26.60;;;;;;5071668;28;20454;-67
2023/12/14 10:20:38;;;;;;;4.87;2.50;;;10.20;26.40;;;;;;5074018;28;20493;-67
2023/12/14 10:23:06;;;;;;;5.33;2.57;;;10.30;26.40;;;;;;5075661;28;20476;-67
2023/12/14 10:25:33;;;;;;;3.97;1.90;;;10.30;26.00;;;;;;5072981;28;20487;-67
2023/12/14 10:28:02;;;;;;;4.03;1.77;;;10.40;25.30;;;;;;5073294;28;20477;-67
2023/12/14 10:30:30;;;;;;;4.17;1.93;;;10.50;24.40;;;;;;5071916;28;20465;-67
2023/12/14 10:32:57;;;;;;;4.00;1.93;;;10.60;24.00;;;;;;5073679;28;20469;-67
2023/12/14 10:35:24;;;;;;;4.90;2.20;;;10.60;23.50;;;;;;5072814;28;20499;-67
2023/12/14 10:37:53;;;;;;;4.80;1.83;;;10.60;23.60;;;;;;5070803;28;20484;-67
2023/12/14 10:40:21;;;;;;;4.67;1.80;;;10.60;23.70;;;;;;5069144;28;20485;-67
2023/12/14 10:42:50;;;;;;;5.40;2.00;;;10.60;23.60;;;;;;5067153;28;20484;-66
2023/12/14 10:45:18;;;;;;;6.13;2.20;;;10.80;23.50;;;;;;5069955;28;20457;-67
2023/12/14 10:47:46;;;;;;;5.17;2.17;;;11.00;23.10;;;;;;5068504;28;20484;-67
2023/12/14 10:50:13;;;;;;;4.07;2.10;;;11.20;22.90;;;;;;5069542;28;20527;-66
2023/12/14 10:52:41;;;;;;;4.00;1.60;;;11.30;21.60;;;;;;5068843;28;20473;-66
2023/12/14 10:55:13;;;;;;;4.70;2.17;;;11.70;21.90;;;;;;5066931;28;20552;-66
2023/12/14 10:57:40;;;;;;;4.50;2.10;;;12.10;20.70;;;;;;5065541;28;20985;-67
2023/12/14 11:00:10;;;;;;;4.30;1.80;;;12.30;20.00;;;;;;5066014;28;20453;-66
2023/12/14 11:02:42;;;;;;;5.07;1.90;;;12.40;19.30;;;;;;5067747;28;20568;-66
2023/12/14 11:05:12;;;;;;;3.87;1.67;;;12.30;18.60;;;;;;5067273;28;20544;-67
2023/12/14 11:07:52;;;;;;;4.93;1.50;;;12.30;18.10;;;;;;5069125;28;21117;-67
2023/12/14 11:10:24;;;;;;;4.47;1.77;;;12.20;18.10;;;;;;5069028;28;21008;-66
2023/12/14 11:13:01;;;;;;;5.13;1.83;;;12.20;18.20;;;;;;5069721;28;20476;-67
2023/12/14 11:15:29;;;;;;;4.00;1.80;;;12.10;18.20;;;;;;5070594;28;20977;-66
2023/12/14 11:18:25;;;;;;;4.63;1.90;;;12.00;18.20;;;;;;5069510;28;20488;-66
2023/12/14 11:20:54;;;;;;;5.47;1.83;;;11.90;18.40;;;;;;5066411;28;20548;-67
2023/12/14 11:23:36;;;;;;;3.80;1.70;;;11.90;18.40;;;;;;5068414;28;20477;-66
2023/12/14 11:26:06;;;;;;;5.20;2.10;;;11.80;18.40;;;;;;5069535;28;20541;-66
2023/12/14 11:28:35;;;;;;;3.70;1.70;;;11.80;18.50;;;;;;5071796;23;20485;-64
2023/12/14 11:31:03;;;;;;;4.60;2.07;;;11.80;18.30;;;;;;5044802;28;20484;-64
2023/12/14 11:33:29;;;;;;;5.07;2.60;;;11.80;18.30;;;;;;5027906;28;20486;-64
2023/12/14 11:35:57;;;;;;;5.10;2.27;;;11.70;18.40;;;;;;5025549;28;20591;-64
2023/12/14 11:38:25;;;;;;;4.10;1.80;;;11.70;18.60;;;;;;5028276;28;20458;-64
2023/12/14 11:40:52;;;;;;;4.20;1.60;;;11.60;18.60;;;;;;5028294;28;20465;-64
2023/12/14 11:43:21;;;;;;;4.10;2.17;;;11.60;18.70;;;;;;5023750;28;20570;-64
2023/12/14 11:45:48;;;;;;;5.67;2.23;;;11.50;18.80;;;;;;5027282;28;20963;-64
2023/12/14 11:48:16;;;;;;;4.40;2.03;;;11.50;18.90;;;;;;5022035;28;20479;-64
2023/12/14 11:50:44;;;;;;;5.47;2.80;;;11.40;18.90;;;;;;5018969;28;20485;-64
2023/12/14 11:53:11;;;;;;;4.83;2.40;;;11.40;18.90;;;;;;5028377;28;20586;-64
2023/12/14 11:55:39;;;;;;;4.53;2.30;;;11.30;19.60;;;;;;5020605;28;20454;-64
2023/12/14 11:58:07;;;;;;;5.33;2.73;;;11.30;19.30;;;;;;5028049;28;21058;-64
2023/12/14 12:00:37;;;;;;;4.10;2.30;;;11.30;19.40;;;;;;5019682;28;20816;-64
2023/12/14 12:03:11;;;;;;;6.00;3.03;;;11.30;19.40;;;;;;5027690;28;20521;-64
2023/12/14 12:05:39;;;;;;;4.93;2.63;;;11.30;19.30;;;;;;5033254;28;20493;-64
2023/12/14 12:08:06;;;;;;;5.00;2.73;;;11.30;19.20;;;;;;5032794;28;20539;-64
2023/12/14 12:10:34;;;;;;;4.57;2.17;;;11.30;19.90;;;;;;5026806;28;20451;-64
2023/12/14 12:13:04;;;;;;;4.63;2.10;;;11.40;19.30;;;;;;5028129;28;20562;-64
2023/12/14 12:15:32;;;;;;;4.17;2.27;;;11.40;19.30;;;;;;5029309;28;20542;-64
2023/12/14 12:18:01;;;;;;;4.17;1.70;;;11.40;19.30;;;;;;5024556;28;20467;-64
2023/12/14 12:20:27;;;;;;;4.13;1.90;;;11.70;19.90;;;;;;5032170;28;20454;-64
2023/12/14 12:22:55;;;;;;;3.80;1.43;;;12.00;19.10;;;;;;5028628;28;20485;-64
2023/12/14 12:25:22;;;;;;;3.97;1.57;;;12.10;18.40;;;;;;5030949;28;20470;-64
2023/12/14 12:27:49;;;;;;;4.20;1.70;;;12.00;18.10;;;;;;5033906;28;20498;-64
2023/12/14 12:30:16;;;;;;;5.27;2.00;;;11.80;18.10;;;;;;5022433;28;20482;-64
2023/12/14 12:32:43;;;;;;;4.43;1.87;;;11.70;18.30;;;;;;5025648;28;20481;-64
2023/12/14 12:35:12;;;;;;;7.60;2.70;;;11.60;19.00;;;;;;5026562;28;20461;-64
2023/12/14 12:37:39;;;;;;;5.70;2.60;;;11.60;18.80;;;;;;5029895;28;20455;-64
2023/12/14 12:40:07;;;;;;;3.67;1.80;;;11.60;18.80;;;;;;5028779;28;20985;-64
2023/12/14 12:42:34;;;;;;;6.33;1.70;;;11.50;18.90;;;;;;5028305;28;20482;-64
2023/12/14 12:45:01;;;;;;;4.20;1.90;;;11.40;18.90;;;;;;5022410;28;20470;-65
2023/12/14 12:47:28;;;;;;;3.60;1.50;;;11.40;19.10;;;;;;5026758;28;20885;-65
2023/12/14 12:49:55;;;;;;;4.43;1.50;;;11.40;19.10;;;;;;5029273;28;20487;-65
2023/12/14 12:52:23;;;;;;;4.23;1.93;;;11.50;19.10;;;;;;5028559;28;20483;-65
2023/12/14 12:54:50;;;;;;;4.30;1.90;;;11.50;18.90;;;;;;5021132;28;20505;-65
2023/12/14 12:57:17;;;;;;;6.03;3.80;;;11.50;18.80;;;;;;5026478;28;20485;-65